Time;durP1;ratioP1;P1;durP2;ratioP2;P2;SDS_P1;SDS_P2;PMS_P1;PMS_P2;Temp;Humidity;BMP_temperature;BMP_pressure;BME280_temperature;BME280_humidity;BME280_pressure;Samples;Min_cycle;Max_cycle;Signal;HPM_P1;HPM_P2
2022/08/28 00:00:51;;;;;;;9.68;2.70;;;17.30;99.90;;;;;;5028688;28;20038;-61
2022/08/28 00:03:17;;;;;;;10.90;2.65;;;17.30;99.90;;;;;;5028568;28;20120;-61
2022/08/28 00:05:43;;;;;;;12.88;2.80;;;17.30;99.90;;;;;;5031450;28;20372;-61
2022/08/28 00:08:11;;;;;;;8.02;2.40;;;17.40;99.90;;;;;;5031164;28;20085;-61
2022/08/28 00:10:38;;;;;;;12.93;2.67;;;17.40;99.90;;;;;;5027180;28;20050;-61
2022/08/28 00:13:06;;;;;;;9.70;2.75;;;17.30;99.90;;;;;;5020382;28;20081;-61
2022/08/28 00:15:36;;;;;;;12.23;2.50;;;17.40;99.90;;;;;;5030733;28;20466;-61
2022/08/28 00:18:04;;;;;;;7.13;2.50;;;17.50;99.90;;;;;;5016237;28;20034;-61
2022/08/28 00:20:30;;;;;;;8.45;2.58;;;17.60;99.90;;;;;;5030255;28;20030;-61
2022/08/28 00:22:56;;;;;;;11.15;3.03;;;17.60;99.90;;;;;;5027846;28;20033;-61
2022/08/28 00:25:25;;;;;;;12.15;2.60;;;17.50;99.90;;;;;;5030090;28;20037;-61
2022/08/28 00:27:56;;;;;;;12.25;2.72;;;17.60;99.90;;;;;;5030495;28;20506;-61
2022/08/28 00:30:28;;;;;;;12.18;2.63;;;17.50;99.90;;;;;;5022202;28;20034;-61
2022/08/28 00:33:01;;;;;;;14.93;3.00;;;17.60;99.90;;;;;;5015482;28;20435;-61
2022/08/28 00:35:27;;;;;;;12.32;2.88;;;17.40;99.90;;;;;;5031093;28;20112;-61
2022/08/28 00:37:56;;;;;;;7.03;2.08;;;17.40;99.90;;;;;;5030713;28;20495;-61
2022/08/28 00:40:24;;;;;;;11.50;2.55;;;17.40;99.90;;;;;;5023239;28;20554;-61
2022/08/28 00:42:50;;;;;;;6.30;2.20;;;17.40;99.90;;;;;;5030882;28;20053;-61
2022/08/28 00:45:18;;;;;;;7.00;2.17;;;17.50;99.90;;;;;;5034110;28;20141;-61
2022/08/28 00:47:45;;;;;;;5.88;2.55;;;17.50;99.90;;;;;;5021149;28;20132;-61
2022/08/28 00:50:18;;;;;;;12.55;2.47;;;17.40;99.90;;;;;;5031510;28;20041;-61
2022/08/28 00:52:46;;;;;;;11.48;2.60;;;17.40;99.90;;;;;;5028139;28;20075;-61
2022/08/28 00:55:19;;;;;;;10.63;2.33;;;17.40;99.90;;;;;;5034228;28;20042;-61
2022/08/28 00:57:55;;;;;;;8.73;2.60;;;17.50;99.90;;;;;;5032803;28;20517;-61
2022/08/28 01:00:35;;;;;;;4.80;1.90;;;17.40;99.90;;;;;;5040717;28;20053;-61
2022/08/28 01:03:02;;;;;;;13.70;2.90;;;17.50;99.90;;;;;;5030763;28;20120;-61
2022/08/28 01:05:29;;;;;;;14.48;2.45;;;17.40;99.90;;;;;;5034195;28;20046;-61
2022/08/28 01:07:57;;;;;;;14.75;2.90;;;17.50;99.90;;;;;;5027812;28;20407;-61
2022/08/28 01:10:25;;;;;;;8.85;2.10;;;17.50;99.90;;;;;;5027446;28;20088;-61
2022/08/28 01:12:53;;;;;;;9.60;2.08;;;17.60;99.90;;;;;;5020007;28;20124;-61
2022/08/28 01:15:23;;;;;;;8.88;2.40;;;17.50;99.90;;;;;;5033585;28;20446;-61
2022/08/28 01:17:53;;;;;;;11.77;2.42;;;17.40;99.90;;;;;;5028467;28;20061;-61
2022/08/28 01:20:23;;;;;;;6.82;2.25;;;17.50;99.90;;;;;;5025207;28;20061;-61
2022/08/28 01:23:26;;;;;;;10.65;2.10;;;17.40;99.90;;;;;;5033113;28;20080;-61
2022/08/28 01:25:51;;;;;;;9.18;2.30;;;17.40;99.90;;;;;;5027646;28;20094;-61
2022/08/28 01:28:17;;;;;;;8.68;2.20;;;17.40;99.90;;;;;;5032967;28;20038;-61
2022/08/28 01:30:46;;;;;;;10.70;2.35;;;17.30;99.90;;;;;;5019960;28;20045;-61
2022/08/28 01:33:13;;;;;;;7.70;2.10;;;17.30;99.90;;;;;;5030046;28;20045;-61
2022/08/28 01:35:43;;;;;;;12.50;2.17;;;17.20;99.90;;;;;;5033672;28;20029;-61
2022/08/28 01:38:09;;;;;;;10.07;2.38;;;17.20;99.90;;;;;;5032655;28;20969;-61
2022/08/28 01:40:41;;;;;;;10.48;2.47;;;17.20;99.90;;;;;;5032850;28;20049;-61
2022/08/28 01:43:16;;;;;;;12.57;2.33;;;17.40;99.90;;;;;;5032129;28;20076;-61
2022/08/28 01:45:45;;;;;;;8.20;2.20;;;17.40;99.90;;;;;;5027313;28;20069;-61
2022/08/28 01:48:12;;;;;;;9.85;2.10;;;17.40;99.90;;;;;;5032667;28;20108;-61
2022/08/28 01:50:39;;;;;;;10.13;2.17;;;17.40;99.90;;;;;;5033301;28;20029;-61
2022/08/28 01:53:05;;;;;;;9.15;2.28;;;17.50;99.90;;;;;;5017370;28;20068;-61
2022/08/28 01:55:34;;;;;;;7.05;2.08;;;17.30;99.90;;;;;;5031968;28;20034;-61
2022/08/28 01:58:01;;;;;;;9.50;2.33;;;17.30;99.90;;;;;;5031483;28;20037;-61
2022/08/28 02:00:28;;;;;;;15.10;2.65;;;17.20;99.90;;;;;;5033222;28;20529;-61
2022/08/28 02:02:57;;;;;;;6.47;2.25;;;17.20;99.90;;;;;;5032757;28;20038;-61
2022/08/28 02:05:24;;;;;;;8.32;2.15;;;17.50;99.90;;;;;;5026939;28;20108;-61
2022/08/28 02:07:51;;;;;;;12.65;2.30;;;17.30;99.90;;;;;;5018077;28;20664;-61
2022/08/28 02:10:18;;;;;;;8.15;2.20;;;17.40;99.90;;;;;;5031611;28;20053;-61
2022/08/28 02:12:44;;;;;;;4.65;2.15;;;17.40;99.90;;;;;;5031924;28;20049;-61
2022/08/28 02:15:10;;;;;;;8.68;2.10;;;17.30;99.90;;;;;;5024730;28;20152;-61
2022/08/28 02:17:36;;;;;;;6.15;1.98;;;17.30;99.90;;;;;;5013099;28;20048;-61
2022/08/28 02:20:03;;;;;;;6.22;2.30;;;17.30;99.90;;;;;;5027172;28;20407;-61
2022/08/28 02:22:28;;;;;;;5.18;2.00;;;17.20;99.90;;;;;;5030984;28;20163;-61
2022/08/28 02:24:54;;;;;;;10.52;2.53;;;17.30;99.90;;;;;;5025782;28;20120;-61
2022/08/28 02:27:20;;;;;;;6.47;2.05;;;17.30;99.90;;;;;;5012921;28;20037;-61
2022/08/28 02:29:46;;;;;;;10.80;2.50;;;17.40;99.90;;;;;;5031666;28;20041;-61
2022/08/28 02:32:11;;;;;;;9.75;2.50;;;17.30;99.90;;;;;;5031859;28;20140;-61
2022/08/28 02:34:38;;;;;;;9.68;2.25;;;17.20;99.90;;;;;;5029057;28;20120;-61
2022/08/28 02:37:06;;;;;;;10.30;2.67;;;17.10;99.90;;;;;;5019989;28;20041;-61
2022/08/28 02:39:32;;;;;;;11.98;2.08;;;17.20;99.90;;;;;;5037914;28;20046;-61
2022/08/28 02:41:57;;;;;;;5.75;1.88;;;17.00;99.90;;;;;;5013985;28;20060;-61
2022/08/28 02:44:23;;;;;;;8.02;2.20;;;17.00;99.90;;;;;;5020963;28;20041;-61
2022/08/28 02:46:48;;;;;;;8.43;2.35;;;17.10;99.90;;;;;;5029779;28;20053;-61
2022/08/28 02:49:14;;;;;;;11.90;2.40;;;17.10;99.90;;;;;;5030204;28;20045;-61
2022/08/28 02:51:40;;;;;;;10.45;2.03;;;17.20;99.90;;;;;;5011102;28;20047;-61
2022/08/28 02:54:05;;;;;;;7.93;2.20;;;17.20;99.90;;;;;;5031693;28;20069;-61
2022/08/28 02:56:31;;;;;;;7.63;2.20;;;17.20;99.90;;;;;;5031984;28;20042;-61
2022/08/28 02:58:57;;;;;;;6.60;2.17;;;17.10;99.90;;;;;;5025910;28;20036;-61
2022/08/28 03:01:22;;;;;;;6.72;2.00;;;17.20;99.90;;;;;;5031996;28;20049;-61
2022/08/28 03:03:48;;;;;;;5.95;1.63;;;17.20;99.90;;;;;;5029666;28;20054;-61
2022/08/28 03:06:14;;;;;;;9.68;2.38;;;17.40;99.90;;;;;;5030324;28;20049;-61
2022/08/28 03:08:42;;;;;;;6.10;1.73;;;17.30;99.90;;;;;;5031196;28;20119;-61
2022/08/28 03:11:08;;;;;;;12.65;2.60;;;17.20;99.90;;;;;;5015688;28;20408;-61
2022/08/28 03:13:34;;;;;;;7.70;2.20;;;17.20;99.90;;;;;;5026464;28;20060;-61
2022/08/28 03:16:00;;;;;;;9.80;2.25;;;17.10;99.90;;;;;;5027890;28;20056;-61
2022/08/28 03:18:29;;;;;;;7.63;2.05;;;17.10;99.90;;;;;;5022634;28;20113;-61
2022/08/28 03:20:55;;;;;;;8.57;2.33;;;17.00;99.90;;;;;;5029422;28;20120;-61
2022/08/28 03:23:27;;;;;;;13.05;1.83;;;17.10;99.90;;;;;;5015175;28;20069;-61
2022/08/28 03:26:00;;;;;;;9.35;2.03;;;17.10;99.90;;;;;;5027151;28;20072;-61
2022/08/28 03:28:29;;;;;;;10.68;2.28;;;17.20;99.90;;;;;;5031028;28;20064;-61
2022/08/28 03:30:56;;;;;;;7.38;2.03;;;17.20;99.90;;;;;;5013142;28;20044;-61
2022/08/28 03:33:25;;;;;;;10.30;2.40;;;17.30;99.90;;;;;;5010312;28;20120;-61
2022/08/28 03:35:51;;;;;;;6.97;2.17;;;17.20;99.90;;;;;;5035329;28;20042;-61
2022/08/28 03:38:18;;;;;;;6.90;2.20;;;17.20;99.90;;;;;;5029432;28;20517;-61
2022/08/28 03:40:46;;;;;;;15.60;2.30;;;17.20;99.90;;;;;;5022503;28;20049;-61
2022/08/28 03:43:18;;;;;;;9.43;2.30;;;17.30;99.90;;;;;;5030406;28;20045;-61
2022/08/28 03:45:57;;;;;;;7.03;2.22;;;17.20;99.90;;;;;;5030890;28;20040;-62
2022/08/28 03:48:27;;;;;;;9.80;2.25;;;17.20;99.90;;;;;;5011744;28;20108;-61
2022/08/28 03:50:54;;;;;;;5.43;1.90;;;17.20;99.90;;;;;;5028020;28;20041;-61
2022/08/28 03:53:21;;;;;;;9.50;2.30;;;17.30;99.90;;;;;;5030429;28;20495;-61
2022/08/28 03:55:47;;;;;;;6.07;1.95;;;17.20;99.90;;;;;;5031016;28;20042;-62
2022/08/28 03:58:13;;;;;;;6.53;2.30;;;17.20;99.90;;;;;;5030930;28;20457;-61
2022/08/28 04:00:40;;;;;;;9.93;2.47;;;17.20;99.90;;;;;;5020806;28;20118;-61
2022/08/28 04:03:06;;;;;;;7.18;2.17;;;17.20;99.90;;;;;;5011281;28;20049;-61
2022/08/28 04:05:33;;;;;;;8.45;2.22;;;17.10;99.90;;;;;;5026637;28;20045;-61
2022/08/28 04:07:59;;;;;;;7.53;2.13;;;17.20;99.90;;;;;;5031142;28;20049;-61
2022/08/28 04:10:25;;;;;;;8.20;2.25;;;17.20;99.90;;;;;;5022814;28;20058;-61
2022/08/28 04:12:51;;;;;;;9.10;2.25;;;17.20;99.90;;;;;;5011407;28;20096;-61
2022/08/28 04:15:17;;;;;;;9.48;2.42;;;17.30;99.90;;;;;;5011401;28;20531;-61
2022/08/28 04:17:43;;;;;;;10.30;2.28;;;17.20;99.90;;;;;;5020904;28;20133;-61
2022/08/28 04:20:09;;;;;;;9.95;2.17;;;17.30;99.90;;;;;;5032732;28;20037;-61
2022/08/28 04:22:36;;;;;;;8.13;2.30;;;17.30;99.90;;;;;;5035061;28;20056;-61
2022/08/28 04:25:02;;;;;;;5.97;1.80;;;17.30;99.90;;;;;;5050469;28;20037;-61
2022/08/28 04:27:28;;;;;;;10.05;2.47;;;17.20;99.90;;;;;;5033481;28;20091;-61
2022/08/28 04:29:53;;;;;;;7.93;2.35;;;17.20;99.90;;;;;;5032765;28;20483;-61
2022/08/28 04:32:20;;;;;;;7.13;2.17;;;17.30;99.90;;;;;;5021084;28;20038;-61
2022/08/28 04:34:46;;;;;;;6.47;2.00;;;17.20;99.90;;;;;;5027379;28;20037;-61
2022/08/28 04:37:11;;;;;;;7.22;2.53;;;17.20;99.90;;;;;;5032851;28;20044;-61
2022/08/28 04:39:37;;;;;;;12.52;2.42;;;17.20;99.90;;;;;;5033342;28;20514;-61
2022/08/28 04:42:03;;;;;;;5.03;1.83;;;17.20;99.90;;;;;;5017048;28;20049;-61
2022/08/28 04:44:29;;;;;;;5.97;2.10;;;17.20;99.90;;;;;;5015025;28;20049;-61
2022/08/28 04:46:55;;;;;;;10.10;2.42;;;17.30;99.90;;;;;;5018849;28;20528;-61
2022/08/28 04:49:21;;;;;;;7.13;2.00;;;17.30;99.90;;;;;;5030669;28;20072;-61
2022/08/28 04:51:47;;;;;;;12.43;2.53;;;17.20;99.90;;;;;;5032322;28;20379;-61
2022/08/28 04:54:13;;;;;;;6.35;1.95;;;17.10;99.90;;;;;;5034542;28;20029;-61
2022/08/28 04:56:40;;;;;;;4.95;1.88;;;17.10;99.90;;;;;;5033522;28;20033;-61
2022/08/28 04:59:06;;;;;;;8.50;2.63;;;17.20;99.90;;;;;;5032578;28;20064;-61
2022/08/28 05:01:32;;;;;;;7.85;2.25;;;17.20;99.90;;;;;;5024533;28;20129;-61
2022/08/28 05:04:01;;;;;;;5.03;1.92;;;17.30;99.90;;;;;;5021317;28;20095;-61
2022/08/28 05:06:29;;;;;;;6.53;2.20;;;17.30;99.90;;;;;;5033486;28;20034;-62
2022/08/28 05:09:00;;;;;;;8.02;2.58;;;17.30;99.90;;;;;;5033387;28;20053;-61
2022/08/28 05:11:28;;;;;;;7.65;2.20;;;17.40;99.90;;;;;;5020014;28;20054;-61
2022/08/28 05:13:54;;;;;;;6.43;1.85;;;17.30;99.90;;;;;;5014539;28;20049;-61
2022/08/28 05:16:20;;;;;;;9.15;2.30;;;17.20;99.90;;;;;;5017492;28;20029;-61
2022/08/28 05:18:47;;;;;;;5.88;1.95;;;17.20;99.90;;;;;;5031977;28;20152;-61
2022/08/28 05:21:19;;;;;;;11.85;2.35;;;17.10;99.90;;;;;;5021623;28;20503;-61
2022/08/28 05:23:49;;;;;;;5.35;2.10;;;17.10;99.90;;;;;;5018522;28;20060;-61
2022/08/28 05:26:16;;;;;;;7.68;2.40;;;17.10;99.90;;;;;;5032789;28;20455;-61
2022/08/28 05:28:42;;;;;;;6.50;2.03;;;17.20;99.90;;;;;;5029389;28;20069;-61
2022/08/28 05:31:14;;;;;;;12.70;2.20;;;17.20;99.90;;;;;;5021911;28;20084;-61
2022/08/28 05:33:40;;;;;;;8.07;2.05;;;17.10;99.90;;;;;;5014136;28;20042;-61
2022/08/28 05:36:06;;;;;;;9.80;2.00;;;17.30;99.90;;;;;;5014173;28;20041;-61
2022/08/28 05:38:33;;;;;;;6.38;2.15;;;17.30;99.90;;;;;;5015990;28;20068;-61
2022/08/28 05:40:59;;;;;;;7.45;2.15;;;17.40;99.90;;;;;;5029003;28;20100;-61
2022/08/28 05:43:25;;;;;;;8.65;2.42;;;17.50;99.90;;;;;;5013814;28;20504;-61
2022/08/28 05:45:58;;;;;;;9.20;2.17;;;17.60;99.90;;;;;;5017067;28;20379;-61
2022/08/28 05:48:26;;;;;;;6.47;1.98;;;17.60;99.90;;;;;;5032684;28;20099;-61
2022/08/28 05:50:52;;;;;;;6.55;2.05;;;17.60;99.90;;;;;;5030772;28;20048;-61
2022/08/28 05:53:18;;;;;;;7.55;2.13;;;17.60;99.90;;;;;;5033426;28;20034;-61
2022/08/28 05:55:43;;;;;;;7.22;2.25;;;17.70;99.90;;;;;;5032829;28;20120;-61
2022/08/28 06:00:54;;;;;;;11.23;2.47;;;17.80;99.90;;;;;;5032357;28;20095;-61
2022/08/28 06:03:20;;;;;;;7.47;2.20;;;17.80;99.90;;;;;;5032560;28;20091;-61
2022/08/28 06:05:45;;;;;;;9.63;2.30;;;17.90;99.90;;;;;;5032911;28;20491;-61
2022/08/28 06:08:12;;;;;;;9.20;2.42;;;17.90;99.90;;;;;;5032728;28;20041;-61
2022/08/28 06:10:44;;;;;;;6.60;2.30;;;17.80;99.90;;;;;;5032098;28;20057;-61
2022/08/28 06:13:09;;;;;;;9.70;2.10;;;17.80;99.90;;;;;;5032750;28;20053;-61
2022/08/28 06:15:41;;;;;;;8.50;2.72;;;17.80;99.90;;;;;;5032151;28;20079;-62
2022/08/28 06:18:07;;;;;;;9.30;2.30;;;17.80;99.90;;;;;;5031096;28;20049;-61
2022/08/28 06:20:40;;;;;;;7.25;2.08;;;17.80;99.90;;;;;;5031529;28;20518;-61
2022/08/28 06:23:06;;;;;;;8.18;2.42;;;18.00;99.90;;;;;;5027899;28;20439;-61
2022/08/28 06:25:37;;;;;;;8.05;2.20;;;18.20;99.90;;;;;;5011889;28;20037;-61
2022/08/28 06:28:02;;;;;;;5.43;1.92;;;18.20;99.90;;;;;;5027674;28;20033;-61
2022/08/28 06:30:28;;;;;;;5.13;1.83;;;18.30;99.90;;;;;;5028708;28;20041;-62
2022/08/28 06:32:53;;;;;;;4.45;1.90;;;18.30;99.90;;;;;;5021016;28;20052;-61
2022/08/28 06:35:19;;;;;;;4.97;1.70;;;18.40;99.90;;;;;;5030010;28;20040;-61
2022/08/28 06:37:45;;;;;;;7.13;2.50;;;18.40;99.90;;;;;;5029312;28;20040;-61
2022/08/28 06:40:10;;;;;;;8.38;2.35;;;18.50;99.90;;;;;;5025800;28;20037;-61
2022/08/28 06:42:36;;;;;;;7.18;2.30;;;18.40;99.90;;;;;;5022871;28;20534;-62
2022/08/28 06:45:01;;;;;;;8.82;1.90;;;18.50;99.90;;;;;;5021472;28;20048;-61
2022/08/28 06:47:27;;;;;;;6.32;2.53;;;18.60;99.90;;;;;;5021331;28;20184;-61
2022/08/28 06:49:53;;;;;;;9.45;2.15;;;18.60;37.60;;;;;;5018588;28;20044;-61
2022/08/28 06:52:19;;;;;;;8.50;2.20;;;18.70;1.00;;;;;;5022405;28;20054;-61
2022/08/28 06:54:44;;;;;;;5.13;1.98;;;18.90;99.90;;;;;;5020290;28;20450;-62
2022/08/28 06:57:10;;;;;;;9.48;2.22;;;19.00;99.90;;;;;;5020081;28;20365;-61
2022/08/28 06:59:35;;;;;;;4.22;1.80;;;19.00;1.00;;;;;;5026177;28;20428;-61
2022/08/28 07:02:03;;;;;;;4.30;1.77;;;19.00;99.90;;;;;;5031070;28;20454;-61
2022/08/28 07:04:29;;;;;;;3.88;1.60;;;19.00;99.90;;;;;;5031190;28;20098;-61
2022/08/28 07:06:54;;;;;;;3.38;1.38;;;19.00;88.50;;;;;;5030283;28;20657;-61
2022/08/28 07:09:21;;;;;;;6.53;1.83;;;19.00;99.90;;;;;;5029926;28;20459;-61
2022/08/28 07:11:46;;;;;;;5.82;1.70;;;19.10;41.90;;;;;;5022828;28;20033;-61
2022/08/28 07:14:12;;;;;;;3.75;1.70;;;19.10;99.90;;;;;;5012652;28;20526;-62
2022/08/28 07:16:38;;;;;;;6.47;1.70;;;19.10;1.00;;;;;;5022199;28;20052;-61
2022/08/28 07:19:06;;;;;;;6.20;1.65;;;19.10;1.00;;;;;;5026970;28;20087;-61
2022/08/28 07:21:36;;;;;;;4.93;1.85;;;19.50;99.90;;;;;;5028102;28;20078;-61
2022/08/28 07:24:03;;;;;;;8.55;2.05;;;19.20;99.90;;;;;;5023309;28;20123;-61
2022/08/28 07:26:28;;;;;;;6.75;1.95;;;19.30;1.00;;;;;;5021715;28;20033;-61
2022/08/28 07:28:54;;;;;;;7.20;1.90;;;19.40;99.90;;;;;;5029182;28;20498;-61
2022/08/28 07:31:24;;;;;;;8.82;1.52;;;19.40;99.90;;;;;;5028843;28;20596;-64
2022/08/28 07:33:51;;;;;;;6.68;2.10;;;19.50;99.90;;;;;;5022766;28;20041;-62
2022/08/28 07:36:19;;;;;;;4.93;1.70;;;19.60;99.90;;;;;;5030023;28;20087;-61
2022/08/28 07:38:46;;;;;;;3.65;1.50;;;19.70;73.90;;;;;;5026862;28;20042;-61
2022/08/28 07:41:17;;;;;;;4.78;1.65;;;19.80;1.00;;;;;;5026574;28;20087;-62
2022/08/28 07:46:28;;;;;;;5.88;1.80;;;19.90;99.90;;;;;;5017238;28;20099;-61
2022/08/28 07:48:54;;;;;;;6.72;1.77;;;20.00;51.30;;;;;;5029723;28;20040;-61
2022/08/28 07:51:19;;;;;;;7.93;2.08;;;19.90;1.00;;;;;;5028171;28;20140;-61
2022/08/28 07:53:45;;;;;;;5.18;2.03;;;20.00;1.00;;;;;;5020758;28;20041;-62
2022/08/28 07:56:10;;;;;;;7.03;2.22;;;19.80;1.00;;;;;;5024381;28;20129;-62
2022/08/28 07:58:37;;;;;;;3.75;1.70;;;19.70;1.00;;;;;;5025954;28;20038;-62
2022/08/28 08:01:03;;;;;;;6.03;2.28;;;19.70;1.00;;;;;;5031725;28;20487;-62
2022/08/28 08:03:30;;;;;;;8.25;2.03;;;19.60;1.00;;;;;;5028192;28;20048;-62
2022/08/28 08:05:59;;;;;;;3.58;1.50;;;19.60;16.80;;;;;;5030545;28;20410;-62
2022/08/28 08:08:25;;;;;;;3.83;1.65;;;19.60;1.00;;;;;;5032248;28;20037;-62
2022/08/28 08:11:07;;;;;;;7.28;1.92;;;19.60;1.00;;;;;;5031235;28;20060;-62
2022/08/28 08:13:34;;;;;;;13.73;2.17;;;19.70;1.00;;;;;;5028551;28;20045;-62
2022/08/28 08:16:05;;;;;;;5.60;1.75;;;19.70;99.90;;;;;;5033496;28;20548;-62
2022/08/28 08:18:32;;;;;;;6.85;1.83;;;19.70;99.90;;;;;;5031414;28;20037;-62
2022/08/28 08:20:58;;;;;;;5.82;1.90;;;19.60;99.90;;;;;;5030751;28;20048;-62
2022/08/28 08:23:24;;;;;;;5.32;1.67;;;19.50;99.90;;;;;;5030712;28;20125;-61
2022/08/28 08:26:11;;;;;;;4.35;1.75;;;19.50;99.90;;;;;;5021574;28;20048;-62
2022/08/28 08:28:38;;;;;;;7.10;2.17;;;19.50;99.90;;;;;;5025346;28;20572;-61
2022/08/28 08:31:07;;;;;;;3.53;1.90;;;19.60;99.90;;;;;;5028533;28;20040;-61
2022/08/28 08:33:36;;;;;;;8.32;2.22;;;19.60;99.90;;;;;;5032174;28;20045;-62
2022/08/28 08:36:03;;;;;;;7.28;2.20;;;19.60;99.90;;;;;;5029007;28;20037;-62
2022/08/28 08:38:29;;;;;;;4.53;1.80;;;19.40;99.90;;;;;;5031757;28;20041;-62
2022/08/28 08:40:55;;;;;;;5.22;1.90;;;19.50;99.90;;;;;;5028643;28;20176;-61
2022/08/28 08:43:22;;;;;;;6.40;1.63;;;19.50;99.90;;;;;;5027581;28;20559;-62
2022/08/28 08:45:50;;;;;;;8.40;2.17;;;19.50;1.00;;;;;;5025227;28;20384;-61
2022/08/28 08:48:24;;;;;;;5.45;1.73;;;19.50;99.90;;;;;;5031757;28;20055;-62
2022/08/28 08:50:50;;;;;;;6.30;1.88;;;19.40;99.90;;;;;;5029202;28;20525;-61
2022/08/28 08:53:18;;;;;;;5.03;1.90;;;19.70;99.90;;;;;;5032702;28;20071;-62
2022/08/28 08:55:51;;;;;;;3.97;1.85;;;20.10;99.90;;;;;;5028827;28;20590;-62
2022/08/28 08:58:38;;;;;;;4.75;1.77;;;20.60;99.90;;;;;;5028322;28;20030;-61
2022/08/28 09:01:16;;;;;;;5.40;1.92;;;21.00;1.00;;;;;;5022242;28;20116;-61
2022/08/28 09:04:14;;;;;;;5.70;1.80;;;21.00;1.00;;;;;;5025289;28;20037;-62
2022/08/28 09:06:47;;;;;;;6.72;1.58;;;21.10;99.90;;;;;;5028550;28;20410;-61
2022/08/28 09:09:35;;;;;;;6.63;1.98;;;21.00;99.90;;;;;;5026525;28;20088;-61
2022/08/28 09:12:08;;;;;;;8.13;1.75;;;21.00;99.90;;;;;;5030235;28;20037;-62
2022/08/28 09:14:46;;;;;;;4.03;1.95;;;21.10;99.90;;;;;;5026129;28;20041;-61
2022/08/28 09:17:16;;;;;;;4.45;2.00;;;21.20;99.90;;;;;;5030497;28;20535;-61
2022/08/28 09:19:41;;;;;;;4.25;1.60;;;21.20;65.50;;;;;;5015914;28;20044;-62
2022/08/28 09:22:07;;;;;;;8.05;1.90;;;21.20;1.00;;;;;;5030983;28;20041;-61
2022/08/28 09:24:35;;;;;;;6.05;2.10;;;21.40;1.00;;;;;;5033972;28;20037;-61
2022/08/28 09:27:24;;;;;;;3.03;1.50;;;21.60;1.00;;;;;;5022725;28;20480;-61
2022/08/28 09:30:01;;;;;;;4.30;1.60;;;21.60;1.00;;;;;;5022719;28;20041;-63
2022/08/28 09:32:31;;;;;;;7.70;1.90;;;21.60;1.00;;;;;;5022576;28;20041;-63
2022/08/28 09:35:20;;;;;;;8.82;2.05;;;21.60;1.00;;;;;;5033620;28;20033;-61
2022/08/28 09:37:46;;;;;;;6.47;1.70;;;21.70;1.00;;;;;;5034694;28;20086;-62
2022/08/28 09:40:25;;;;;;;7.82;1.90;;;21.50;1.00;;;;;;5022524;28;20772;-61
2022/08/28 09:45:53;;;;;;;3.75;1.70;;;21.30;99.90;;;;;;5019131;28;20050;-63
2022/08/28 09:48:29;;;;;;;4.53;1.70;;;21.30;99.90;;;;;;5017464;28;20041;-62
2022/08/28 09:51:01;;;;;;;5.35;2.00;;;21.10;99.90;;;;;;5021695;28;20064;-62
2022/08/28 09:53:29;;;;;;;4.82;2.03;;;22.40;1.00;;;;;;5019194;28;20492;-64
2022/08/28 09:56:13;;;;;;;7.65;1.58;;;20.90;99.90;;;;;;5022226;28;20049;-64
2022/08/28 09:58:45;;;;;;;6.13;2.05;;;20.80;99.90;;;;;;5033173;28;20106;-62
2022/08/28 10:01:35;;;;;;;5.70;2.13;;;20.60;99.90;;;;;;5024044;28;20103;-62
2022/08/28 10:04:14;;;;;;;11.18;2.00;;;20.50;99.90;;;;;;5019621;28;20073;-62
2022/08/28 10:06:42;;;;;;;6.38;2.13;;;20.30;1.00;;;;;;5021988;28;20049;-62
2022/08/28 10:09:34;;;;;;;6.68;1.85;;;20.40;1.00;;;;;;5032801;28;20479;-61
2022/08/28 10:12:06;;;;;;;9.35;2.10;;;20.40;1.00;;;;;;5020178;28;20141;-64
2022/08/28 10:14:54;;;;;;;11.52;2.10;;;20.50;1.00;;;;;;5013893;28;20124;-62
2022/08/28 10:17:49;;;;;;;8.13;1.90;;;20.60;16.90;;;;;;5013719;28;20140;-64
2022/08/28 10:20:23;;;;;;;8.38;1.80;;;20.70;1.00;;;;;;5025578;28;20041;-63
2022/08/28 10:23:09;;;;;;;4.07;1.50;;;20.90;1.00;;;;;;5030963;28;20064;-62
2022/08/28 10:25:52;;;;;;;4.15;1.60;;;21.00;99.90;;;;;;5022872;28;20139;-63
2022/08/28 10:28:23;;;;;;;5.07;1.73;;;21.10;99.90;;;;;;5030424;28;20037;-63
2022/08/28 10:31:13;;;;;;;5.97;1.60;;;21.10;99.90;;;;;;5024462;28;20137;-63
2022/08/28 10:33:39;;;;;;;4.68;2.00;;;21.20;99.90;;;;;;5021520;28;20084;-62
2022/08/28 10:36:12;;;;;;;6.43;2.03;;;21.00;99.90;;;;;;5030739;28;20092;-61
2022/08/28 10:38:42;;;;;;;7.72;1.95;;;20.90;99.90;;;;;;5028348;28;20038;-62
2022/08/28 10:41:27;;;;;;;5.20;1.42;;;20.70;99.90;;;;;;5019014;28;20033;-61
2022/08/28 10:43:56;;;;;;;5.88;1.88;;;21.00;99.90;;;;;;5022479;28;20080;-62
2022/08/28 10:46:23;;;;;;;4.50;1.67;;;21.40;99.90;;;;;;5027589;28;20127;-62
2022/08/28 10:48:58;;;;;;;7.00;2.00;;;21.50;99.90;;;;;;5026830;28;20040;-62
2022/08/28 10:51:37;;;;;;;9.32;2.17;;;21.60;99.90;;;;;;5016709;28;20381;-62
2022/08/28 10:54:14;;;;;;;3.85;1.42;;;21.70;99.90;;;;;;5024592;28;20077;-62
2022/08/28 10:56:50;;;;;;;4.07;1.38;;;21.70;99.90;;;;;;5027097;28;20055;-61
2022/08/28 10:59:15;;;;;;;4.00;1.63;;;21.90;99.90;;;;;;5026597;28;20037;-62
2022/08/28 11:01:41;;;;;;;7.68;1.70;;;21.70;99.90;;;;;;5022184;28;20046;-62
2022/08/28 11:04:15;;;;;;;5.32;1.92;;;21.50;99.90;;;;;;5013553;28;20081;-62
2022/08/28 11:06:48;;;;;;;4.20;1.60;;;21.50;99.90;;;;;;5024427;28;20049;-61
2022/08/28 11:09:26;;;;;;;5.13;2.00;;;21.50;99.90;;;;;;5024486;28;20121;-62
2022/08/28 11:11:56;;;;;;;7.18;1.80;;;21.60;99.90;;;;;;5030439;28;20049;-62
2022/08/28 11:14:25;;;;;;;8.20;1.95;;;21.60;99.90;;;;;;5019028;28;20432;-62
2022/08/28 11:16:53;;;;;;;8.65;1.88;;;21.40;99.90;;;;;;5021839;28;20050;-62
2022/08/28 11:19:36;;;;;;;3.70;1.80;;;21.00;99.90;;;;;;5024307;28;20033;-62
2022/08/28 11:22:14;;;;;;;10.13;2.03;;;20.50;99.90;;;;;;5029335;28;20111;-62
2022/08/28 11:24:48;;;;;;;7.03;1.70;;;20.50;99.90;;;;;;5021103;28;20072;-62
2022/08/28 11:27:15;;;;;;;5.72;1.95;;;20.60;99.90;;;;;;5017733;28;20062;-62
2022/08/28 11:30:00;;;;;;;3.40;1.50;;;20.70;99.90;;;;;;5029892;28;20041;-62
2022/08/28 11:32:31;;;;;;;4.75;1.70;;;20.80;99.90;;;;;;5021185;28;20045;-62
2022/08/28 11:34:59;;;;;;;9.38;2.40;;;20.80;99.90;;;;;;5029571;28;20454;-62
2022/08/28 11:37:39;;;;;;;4.05;1.77;;;20.80;99.90;;;;;;5029510;28;20044;-62
2022/08/28 11:40:26;;;;;;;4.50;1.77;;;21.00;99.90;;;;;;5044390;28;20041;-62
2022/08/28 11:43:14;;;;;;;3.88;1.70;;;20.80;99.90;;;;;;5026074;28;20078;-62
2022/08/28 11:45:45;;;;;;;4.85;1.67;;;20.70;99.90;;;;;;5026513;28;20046;-64
2022/08/28 11:48:32;;;;;;;5.22;1.88;;;20.80;99.90;;;;;;5020023;28;20048;-62
2022/08/28 11:50:57;;;;;;;;;;;20.90;99.90;;;;;;5022289;28;20044;-62
2022/08/28 11:53:49;;;;;;;5.37;1.90;;;20.90;99.90;;;;;;5026931;28;19916;-62
2022/08/28 11:56:30;;;;;;;4.28;1.70;;;20.90;99.90;;;;;;5019720;28;20163;-63
2022/08/28 11:59:16;;;;;;;4.65;1.50;;;20.90;99.90;;;;;;5031035;28;20042;-63
2022/08/28 12:01:43;;;;;;;4.50;2.33;;;20.60;99.90;;;;;;5028125;28;20045;-63
2022/08/28 12:04:18;;;;;;;3.78;1.50;;;20.70;99.90;;;;;;5025359;28;20041;-63
2022/08/28 12:06:44;;;;;;;3.05;1.70;;;20.90;99.90;;;;;;5029271;28;20463;-63
2022/08/28 12:09:46;;;;;;;7.15;1.83;;;20.80;99.90;;;;;;5029199;28;20088;-63
2022/08/28 12:12:20;;;;;;;6.93;2.13;;;20.70;99.90;;;;;;5024918;28;20141;-63
2022/08/28 12:14:46;;;;;;;6.78;2.08;;;20.60;99.90;;;;;;5030329;28;20037;-63
2022/08/28 12:17:20;;;;;;;5.75;2.20;;;20.70;99.90;;;;;;5028898;28;20092;-62
2022/08/28 12:19:51;;;;;;;9.35;2.15;;;20.80;99.90;;;;;;5027651;28;20045;-63
2022/08/28 12:22:21;;;;;;;6.22;1.45;;;20.70;99.90;;;;;;5029046;28;20041;-63
2022/08/28 12:24:59;;;;;;;8.52;2.00;;;20.90;99.90;;;;;;5029714;28;20045;-62
2022/08/28 12:27:25;;;;;;;3.60;1.40;;;20.90;99.90;;;;;;5028917;28;20499;-62
2022/08/28 12:30:01;;;;;;;3.88;1.45;;;20.90;99.90;;;;;;5028391;28;20120;-62
2022/08/28 12:32:30;;;;;;;5.07;1.85;;;20.60;99.90;;;;;;5028465;28;20103;-62
2022/08/28 12:34:56;;;;;;;4.53;1.95;;;20.70;99.90;;;;;;5020762;28;20041;-62
2022/08/28 12:37:31;;;;;;;4.03;1.92;;;20.80;99.90;;;;;;5026758;28;20047;-62
2022/08/28 12:40:18;;;;;;;4.63;2.00;;;21.10;99.90;;;;;;5034287;28;20037;-62
2022/08/28 12:43:05;;;;;;;2.47;1.40;;;21.00;99.90;;;;;;5024178;28;20091;-63
2022/08/28 12:45:58;;;;;;;4.68;1.80;;;20.70;99.90;;;;;;5022389;28;20029;-62
2022/08/28 12:48:33;;;;;;;3.70;1.55;;;20.70;99.90;;;;;;5028147;28;20042;-62
2022/08/28 12:51:05;;;;;;;4.57;1.93;;;20.80;99.90;;;;;;5028921;28;20074;-62
2022/08/28 12:53:43;;;;;;;6.63;1.88;;;20.70;99.90;;;;;;5032508;28;20781;-62
2022/08/28 12:56:12;;;;;;;3.53;1.80;;;20.80;99.90;;;;;;5021186;28;20457;-62
2022/08/28 12:58:39;;;;;;;8.98;1.75;;;20.80;99.90;;;;;;5025046;28;20038;-62
2022/08/28 13:01:09;;;;;;;4.63;1.85;;;20.80;99.90;;;;;;5031506;28;20037;-62
2022/08/28 13:03:53;;;;;;;6.38;1.63;;;20.90;99.90;;;;;;5031010;28;20136;-62
2022/08/28 13:06:39;;;;;;;4.82;1.65;;;20.80;99.90;;;;;;5026294;28;20033;-63
2022/08/28 13:09:17;;;;;;;4.78;1.77;;;20.80;99.90;;;;;;5027020;28;20160;-63